createdAt,value
2023-03-26T00:02:43.525Z,99489.06
2023-03-26T00:05:48.332Z,99456.19
2023-03-26T00:08:50.778Z,99470.56
2023-03-26T00:11:52.622Z,99472.38
2023-03-26T00:14:54.384Z,99454.66
2023-03-26T00:17:56.442Z,99484.34
2023-03-26T00:21:00.398Z,99483.69
2023-03-26T00:24:07.595Z,99483.91
2023-03-26T00:27:10.421Z,99479.03
2023-03-26T00:30:13.023Z,99482.69
2023-03-26T00:33:22.349Z,99488.91
2023-03-26T00:36:27.235Z,99473.41
2023-03-26T00:39:33.675Z,99469.47
2023-03-26T00:42:36.980Z,99475.66
2023-03-26T00:45:39.749Z,99490.25
2023-03-26T00:48:45.781Z,99496.97
2023-03-26T00:51:49.424Z,99488.22
2023-03-26T00:54:52.232Z,99509.59
2023-03-26T00:57:56.051Z,99505.06
2023-03-26T01:01:00.870Z,99497.19
2023-03-26T01:04:28.708Z,99492.78
2023-03-26T01:07:31.083Z,99491.81
2023-03-26T01:10:39.238Z,99485.78
2023-03-26T01:13:49.711Z,99491.03
2023-03-26T01:17:01.663Z,99492.94
2023-03-26T01:20:15.058Z,99483.53
2023-03-26T01:23:30.850Z,99450.03
2023-03-26T01:27:04.638Z,99475.09
2023-03-26T01:30:24.921Z,99472.72
2023-03-26T01:33:59.445Z,99468.44
2023-03-26T01:37:13.296Z,99465.78
2023-03-26T01:40:23.698Z,99465.69
2023-03-26T01:43:36.562Z,99471.53
2023-03-26T01:46:39.959Z,99461.84
2023-03-26T01:49:42.728Z,99423.13
2023-03-26T01:52:45.724Z,99467.72
2023-03-26T01:55:57.051Z,99463.13
2023-03-26T01:59:54.116Z,99467.44
2023-03-26T02:03:08.821Z,99473.34
2023-03-26T02:06:34.905Z,99471.59
2023-03-26T02:09:46.347Z,99469.00
2023-03-26T02:12:50.389Z,99462.25
2023-03-26T02:16:01.791Z,99459.59
2023-03-26T02:19:04.994Z,99448.22
2023-03-26T02:22:11.171Z,99446.53
2023-03-26T02:25:20.480Z,99440.34
2023-03-26T02:28:24.864Z,99446.94
2023-03-26T02:31:28.315Z,99467.69
2023-03-26T02:34:31.699Z,99440.81
2023-03-26T02:37:34.899Z,99439.66
2023-03-26T02:40:45.848Z,99439.75
2023-03-26T02:43:48.520Z,99451.75
2023-03-26T02:46:54.320Z,99458.91
2023-03-26T02:50:17.261Z,99450.31
2023-03-26T02:53:46.569Z,99467.78
2023-03-26T02:57:01.667Z,99460.91
2023-03-26T03:00:30.556Z,99469.69
2023-03-26T03:03:48.827Z,99458.94
2023-03-26T03:07:00.533Z,99460.50
2023-03-26T03:10:03.565Z,99458.34
2023-03-26T03:13:25.740Z,99476.47
2023-03-26T03:16:29.161Z,99471.31
2023-03-26T03:19:34.343Z,99482.53
2023-03-26T03:22:36.465Z,99466.88
2023-03-26T03:25:44.029Z,99484.19
2023-03-26T03:28:45.855Z,99490.06
2023-03-26T03:31:50.554Z,99480.16
2023-03-26T03:35:10.629Z,99468.75
2023-03-26T03:38:13.176Z,99467.16
2023-03-26T03:41:22.305Z,99453.16
2023-03-26T03:44:24.043Z,99461.63
2023-03-26T03:47:26.957Z,99478.69
2023-03-26T03:50:29.548Z,99473.69
2023-03-26T03:53:51.261Z,99472.31
2023-03-26T03:57:06.421Z,99488.06
2023-03-26T04:00:20.168Z,99500.63
2023-03-26T04:03:38.783Z,99498.25
2023-03-26T04:06:46.148Z,99488.22
2023-03-26T04:09:50.805Z,99506.16
2023-03-26T04:12:56.372Z,99482.31
2023-03-26T04:16:17.984Z,99509.25
2023-03-26T04:19:20.266Z,99494.16
2023-03-26T04:22:24.094Z,99507.34
2023-03-26T04:25:33.769Z,99506.69
2023-03-26T04:28:51.059Z,99514.75
2023-03-26T04:32:07.173Z,99508.78
2023-03-26T04:35:15.057Z,99508.06
2023-03-26T04:38:21.756Z,99506.47
2023-03-26T04:41:27.427Z,99484.19
2023-03-26T04:44:37.672Z,99519.50
2023-03-26T04:47:46.920Z,99506.50
2023-03-26T04:50:49.973Z,99502.97
2023-03-26T04:53:58.838Z,99492.53
2023-03-26T04:57:09.132Z,99510.44
2023-03-26T05:00:19.153Z,99521.59
2023-03-26T05:03:32.589Z,99506.75
2023-03-26T05:06:43.089Z,99509.97
2023-03-26T05:09:54.553Z,99518.34
2023-03-26T05:13:28.619Z,99497.31
2023-03-26T05:16:35.311Z,99500.38
2023-03-26T05:19:42.692Z,99507.09
2023-03-26T05:22:45.048Z,99520.38
2023-03-26T05:25:57.690Z,99517.63
2023-03-26T05:29:03.009Z,99515.13
2023-03-26T05:32:11.876Z,99497.28
2023-03-26T05:35:17.630Z,99505.31
2023-03-26T05:38:20.717Z,99520.19
2023-03-26T05:41:23.029Z,99502.06
2023-03-26T05:44:26.700Z,99526.28
2023-03-26T05:47:29.112Z,99541.44
2023-03-26T05:50:31.780Z,99544.25
2023-03-26T05:53:35.585Z,99537.03
2023-03-26T05:56:57.338Z,99510.16
2023-03-26T06:00:22.067Z,99525.22
2023-03-26T06:03:26.672Z,99516.63
2023-03-26T06:06:45.362Z,99534.66
2023-03-26T06:09:47.813Z,99490.09
2023-03-26T06:12:51.058Z,99519.59
2023-03-26T06:15:55.057Z,99505.22
2023-03-26T06:19:02.593Z,99514.53
2023-03-26T06:22:22.178Z,99524.88
2023-03-26T06:25:46.745Z,99515.56
2023-03-26T06:29:08.233Z,99511.59
2023-03-26T06:32:23.149Z,99544.97
2023-03-26T06:35:37.921Z,99536.66
2023-03-26T06:38:40.883Z,99514.47
2023-03-26T06:41:44.608Z,99547.06
2023-03-26T06:44:57.369Z,99559.78
2023-03-26T06:48:10.453Z,99562.72
2023-03-26T06:51:40.773Z,99569.34
2023-03-26T06:55:15.500Z,99567.41
2023-03-26T06:58:36.890Z,99568.47
2023-03-26T07:01:57.582Z,99562.69
2023-03-26T07:05:18.420Z,99571.13
2023-03-26T07:08:38.839Z,99592.00
2023-03-26T07:12:06.792Z,99591.19
2023-03-26T07:15:29.032Z,99580.69
2023-03-26T07:18:54.474Z,99593.28
2023-03-26T07:21:59.739Z,99569.94
2023-03-26T07:25:34.116Z,99607.31
2023-03-26T07:29:05.118Z,99608.72
2023-03-26T07:32:38.149Z,99609.88
2023-03-26T07:36:15.938Z,99610.53
2023-03-26T07:40:09.468Z,99601.94
2023-03-26T07:43:46.318Z,99605.16
2023-03-26T07:47:05.329Z,99603.88
2023-03-26T07:50:08.934Z,99586.91
2023-03-26T07:53:39.823Z,99573.06
2023-03-26T07:57:20.463Z,99592.06
2023-03-26T08:01:14.981Z,99572.78
2023-03-26T08:04:30.374Z,99594.63
2023-03-26T08:08:07.410Z,99599.50
2023-03-26T08:11:30.121Z,99583.09
2023-03-26T08:14:55.503Z,99604.59
2023-03-26T08:18:14.707Z,99592.53
2023-03-26T08:21:26.748Z,99591.94
2023-03-26T08:24:47.669Z,99602.41
2023-03-26T08:28:29.789Z,99572.66
2023-03-26T08:31:35.624Z,99583.66
2023-03-26T08:34:38.765Z,99576.31
2023-03-26T08:37:41.307Z,99558.41
2023-03-26T08:41:15.182Z,99566.25
2023-03-26T08:44:48.306Z,99575.22
2023-03-26T08:48:16.056Z,99580.28
2023-03-26T08:51:37.493Z,99580.03
2023-03-26T08:54:49.511Z,99557.25
2023-03-26T08:58:17.886Z,99593.56
2023-03-26T09:01:20.622Z,99557.50
2023-03-26T09:04:49.919Z,99586.72
2023-03-26T09:08:10.868Z,99589.94
2023-03-26T09:11:44.828Z,99579.13
2023-03-26T09:15:07.103Z,99588.75
2023-03-26T09:18:28.151Z,99580.06
2023-03-26T09:21:48.984Z,99581.34
2023-03-26T09:25:08.791Z,99583.94
2023-03-26T09:28:22.678Z,99583.69
2023-03-26T09:31:49.034Z,99584.97
2023-03-26T09:35:12.646Z,99571.75
2023-03-26T09:38:36.982Z,99539.28
2023-03-26T09:41:55.475Z,99573.13
2023-03-26T09:45:20.327Z,99565.63
2023-03-26T09:48:25.560Z,99558.63
2023-03-26T09:51:37.720Z,99572.41
2023-03-26T09:54:44.547Z,99575.25
2023-03-26T09:58:20.346Z,99561.84
2023-03-26T10:01:32.709Z,99555.34
2023-03-26T10:04:41.604Z,99550.06
2023-03-26T10:08:21.858Z,99547.38
2023-03-26T10:11:35.171Z,99522.41
2023-03-26T10:15:32.002Z,99516.84
2023-03-26T10:19:00.955Z,99547.72
2023-03-26T10:22:09.848Z,99537.34
2023-03-26T10:25:23.780Z,99513.28
2023-03-26T10:28:25.519Z,99529.00
2023-03-26T10:32:01.129Z,99512.53
2023-03-26T10:35:22.553Z,99532.56
2023-03-26T10:38:25.834Z,99527.13
2023-03-26T10:41:45.138Z,99521.53
2023-03-26T10:45:27.096Z,99523.28
2023-03-26T10:49:04.384Z,99524.72
2023-03-26T10:52:16.848Z,99519.72
2023-03-26T10:55:46.906Z,99488.06
2023-03-26T10:58:50.391Z,99455.78
2023-03-26T11:01:59.294Z,99498.44
2023-03-26T11:05:16.602Z,99485.34
2023-03-26T11:08:32.246Z,99468.97
2023-03-26T11:12:25.679Z,99480.31
2023-03-26T11:15:42.930Z,99469.03
2023-03-26T11:18:54.195Z,99433.81
2023-03-26T11:22:17.712Z,99456.03
2023-03-26T11:25:33.105Z,99459.78
2023-03-26T11:29:31.347Z,99439.72
2023-03-26T11:32:45.547Z,99430.66
2023-03-26T11:35:51.256Z,99446.41
2023-03-26T11:39:00.048Z,99443.22
2023-03-26T11:42:14.128Z,99395.56
2023-03-26T11:45:25.196Z,99414.88
2023-03-26T11:48:40.794Z,99432.91
2023-03-26T11:51:45.746Z,99400.72
2023-03-26T11:54:51.042Z,99409.47
2023-03-26T11:58:00.016Z,99409.69
2023-03-26T12:01:17.337Z,99409.19
2023-03-26T12:04:34.018Z,99401.34
2023-03-26T12:07:35.894Z,99399.16
2023-03-26T12:10:43.268Z,99375.53
2023-03-26T12:13:58.514Z,99394.22
2023-03-26T12:17:08.831Z,99395.38
2023-03-26T12:20:33.892Z,99401.16
2023-03-26T12:23:38.752Z,99397.59
2023-03-26T12:26:46.328Z,99392.63
2023-03-26T12:30:00.177Z,99382.91
2023-03-26T12:33:20.469Z,99380.72
2023-03-26T12:36:36.852Z,99379.13
2023-03-26T12:40:07.852Z,99371.50
2023-03-26T12:44:55.981Z,99367.41
2023-03-26T12:47:58.583Z,99353.69
2023-03-26T12:51:07.169Z,99348.25
2023-03-26T12:54:19.254Z,99338.97
2023-03-26T12:57:30.652Z,99337.75
2023-03-26T13:01:09.596Z,99332.22
2023-03-26T13:04:37.588Z,99329.97
2023-03-26T13:07:59.097Z,99326.47
2023-03-26T13:11:01.828Z,99320.31
2023-03-26T13:14:31.903Z,99312.38
2023-03-26T13:17:46.572Z,99310.84
2023-03-26T13:20:57.955Z,99278.00
2023-03-26T13:24:09.972Z,99242.94
2023-03-26T13:27:18.662Z,99264.09
2023-03-26T13:31:04.354Z,99292.25
2023-03-26T13:34:41.328Z,99287.03
2023-03-26T13:37:59.318Z,99278.56
2023-03-26T13:41:23.809Z,99268.94
2023-03-26T13:44:46.499Z,99261.25
2023-03-26T13:47:52.572Z,99246.84
2023-03-26T13:51:18.325Z,99242.97
2023-03-26T13:54:46.074Z,99240.81
2023-03-26T13:58:11.052Z,99246.38
2023-03-26T14:01:33.843Z,99241.50
2023-03-26T14:04:47.553Z,99187.16
2023-03-26T14:07:57.387Z,99229.41
2023-03-26T14:11:16.709Z,99200.81
2023-03-26T14:14:29.038Z,99149.16
2023-03-26T14:18:02.296Z,99224.09
2023-03-26T14:21:14.084Z,99213.13
2023-03-26T14:24:47.811Z,99169.03
2023-03-26T14:28:10.882Z,99207.94
2023-03-26T14:31:24.231Z,99203.97
2023-03-26T14:34:49.777Z,99202.91
2023-03-26T14:38:14.399Z,99195.81
2023-03-26T14:41:25.670Z,99210.41
2023-03-26T14:44:30.673Z,99209.78
2023-03-26T14:48:11.935Z,99172.06
2023-03-26T14:51:23.099Z,99200.66
2023-03-26T14:54:29.172Z,99165.25
2023-03-26T14:57:39.748Z,99177.34
2023-03-26T15:00:48.592Z,99203.44
2023-03-26T15:04:08.772Z,99197.03
2023-03-26T15:07:57.763Z,99193.53
2023-03-26T15:11:38.678Z,99196.06
2023-03-26T15:15:13.441Z,99194.56
2023-03-26T15:18:31.339Z,99196.84
2023-03-26T15:21:52.897Z,99199.50
2023-03-26T15:25:02.798Z,99155.88
2023-03-26T15:28:30.580Z,99199.78
2023-03-26T15:31:59.980Z,99212.75
2023-03-26T15:35:06.438Z,99204.53
2023-03-26T15:38:33.309Z,99205.25
2023-03-26T15:41:53.697Z,99209.31
2023-03-26T15:45:27.138Z,99217.22
2023-03-26T15:49:08.302Z,99207.81
2023-03-26T15:52:32.370Z,99154.75
2023-03-26T15:55:59.437Z,99192.00
2023-03-26T15:59:33.071Z,99210.06
2023-03-26T16:03:14.763Z,99214.50
2023-03-26T16:06:36.023Z,99205.91
2023-03-26T16:09:52.969Z,99178.28
2023-03-26T16:13:23.486Z,99203.25
2023-03-26T16:16:52.634Z,99205.66
2023-03-26T16:20:33.390Z,99201.06
2023-03-26T16:23:53.777Z,99182.94
2023-03-26T16:27:15.689Z,99165.31
2023-03-26T16:30:36.047Z,99182.84
2023-03-26T16:33:47.975Z,99161.13
2023-03-26T16:36:51.524Z,99194.50
2023-03-26T16:39:54.240Z,99168.03
2023-03-26T16:43:09.011Z,99189.97
2023-03-26T16:46:12.081Z,99183.72
2023-03-26T16:49:35.595Z,99183.56
2023-03-26T16:53:18.110Z,99179.91
2023-03-26T16:56:22.042Z,99177.97
2023-03-26T16:59:46.082Z,99176.53
2023-03-26T17:03:37.715Z,99140.59
2023-03-26T17:06:49.614Z,99184.44
2023-03-26T17:10:13.483Z,99176.75
2023-03-26T17:13:28.866Z,99171.63
2023-03-26T17:16:57.596Z,99179.75
2023-03-26T17:20:14.587Z,99186.84
2023-03-26T17:23:51.703Z,99195.72
2023-03-26T17:27:05.019Z,99200.22
2023-03-26T17:30:33.061Z,99209.28
2023-03-26T17:33:38.953Z,99203.66
2023-03-26T17:36:43.549Z,99196.38
2023-03-26T17:39:47.690Z,99212.75
2023-03-26T17:43:13.050Z,99199.53
2023-03-26T17:46:45.995Z,99213.47
2023-03-26T17:53:32.046Z,99216.44
2023-03-26T17:56:37.677Z,99196.66
2023-03-26T17:59:43.832Z,99213.22
2023-03-26T18:02:54.683Z,99212.31
2023-03-26T18:06:06.509Z,99200.47
2023-03-26T18:09:12.153Z,99201.53
2023-03-26T18:12:51.761Z,99211.59
2023-03-26T18:16:16.400Z,99220.16
2023-03-26T18:19:23.395Z,99224.59
2023-03-26T18:22:28.493Z,99226.84
2023-03-26T18:25:34.141Z,99216.75
2023-03-26T18:28:42.213Z,99183.72
2023-03-26T18:31:46.903Z,99186.84
2023-03-26T18:34:56.978Z,99182.16
2023-03-26T18:38:00.546Z,99204.38
2023-03-26T18:41:04.435Z,99200.59
2023-03-26T18:44:13.638Z,99195.03
2023-03-26T18:47:16.722Z,99196.41
2023-03-26T18:50:26.333Z,99204.03
2023-03-26T18:53:36.186Z,99200.31
2023-03-26T18:56:43.638Z,99199.31
2023-03-26T18:59:51.133Z,99177.66
2023-03-26T19:03:13.573Z,99186.19
2023-03-26T19:06:16.094Z,99178.75
2023-03-26T19:09:30.972Z,99190.06
2023-03-26T19:12:36.244Z,99175.31
2023-03-26T19:15:38.528Z,99160.91
2023-03-26T19:18:44.097Z,99157.66
2023-03-26T19:21:47.157Z,99178.16
2023-03-26T19:24:55.620Z,99171.31
2023-03-26T19:27:57.927Z,99173.16
2023-03-26T19:31:09.818Z,99143.50
2023-03-26T19:34:12.025Z,99164.72
2023-03-26T19:37:29.230Z,99141.13
2023-03-26T19:40:34.854Z,99153.25
2023-03-26T19:43:37.155Z,99137.88
2023-03-26T19:50:23.489Z,99118.88
2023-03-26T19:51:18.508Z,99116.44
2023-03-26T19:53:37.972Z,99102.28
2023-03-26T19:56:41.248Z,99136.88
2023-03-26T19:59:45.210Z,99135.31
2023-03-26T20:02:53.235Z,99127.75
2023-03-26T20:05:55.291Z,99129.38
2023-03-26T20:08:57.970Z,99116.66
2023-03-26T20:12:00.146Z,99140.09
2023-03-26T20:15:03.391Z,99135.66
2023-03-26T20:18:05.733Z,99134.88
2023-03-26T20:21:13.052Z,99128.69
2023-03-26T20:24:18.332Z,99127.91
2023-03-26T20:27:21.109Z,99121.94
2023-03-26T20:30:37.430Z,99097.81
2023-03-26T20:33:40.778Z,99122.84
2023-03-26T20:36:43.630Z,99106.53
2023-03-26T20:39:46.917Z,99100.63
2023-03-26T20:42:49.169Z,99108.13
2023-03-26T20:45:52.599Z,99087.47
2023-03-26T20:48:56.527Z,99075.59
2023-03-26T20:52:00.674Z,99074.59
2023-03-26T20:55:03.811Z,99101.72
2023-03-26T20:58:06.662Z,99075.41
2023-03-26T21:01:13.788Z,99088.19
2023-03-26T21:04:17.654Z,99041.22
2023-03-26T21:07:20.460Z,99034.25
2023-03-26T21:10:26.060Z,99112.25
2023-03-26T21:13:40.855Z,99104.41
2023-03-26T21:16:44.198Z,99097.47
2023-03-26T21:19:47.744Z,99108.13
2023-03-26T21:23:12.086Z,99038.88
2023-03-26T21:26:44.241Z,99091.47
2023-03-26T21:29:46.717Z,99059.69
2023-03-26T21:32:52.173Z,99076.53
2023-03-26T21:35:57.205Z,99074.53
2023-03-26T21:38:59.688Z,99067.69
2023-03-26T21:42:05.205Z,99036.69
2023-03-26T21:45:09.275Z,99050.34
2023-03-26T21:48:12.695Z,99014.50
2023-03-26T21:51:19.326Z,99002.28
2023-03-26T21:54:24.433Z,99017.78
2023-03-26T21:58:12.476Z,99010.66
2023-03-26T22:01:24.532Z,98998.50
2023-03-26T22:04:44.340Z,98987.72
2023-03-26T22:07:59.278Z,98989.47
2023-03-26T22:11:02.057Z,98961.72
2023-03-26T22:14:05.098Z,98972.38
2023-03-26T22:17:08.010Z,98946.81
2023-03-26T22:20:15.297Z,98934.16
2023-03-26T22:23:18.135Z,98964.84
2023-03-26T22:26:23.725Z,98961.22
2023-03-26T22:29:26.498Z,98966.47
2023-03-26T22:32:32.806Z,98951.84
2023-03-26T22:35:36.081Z,98960.16
2023-03-26T22:38:40.921Z,98959.41
2023-03-26T22:41:43.136Z,98955.56
2023-03-26T22:44:46.596Z,98967.72
2023-03-26T22:47:48.935Z,98965.94
2023-03-26T22:50:59.770Z,98920.72
2023-03-26T22:54:03.004Z,98948.38
2023-03-26T22:57:06.319Z,98956.91
2023-03-26T23:00:20.118Z,98950.06
2023-03-26T23:03:35.314Z,98946.66
2023-03-26T23:06:38.537Z,98911.44
2023-03-26T23:09:41.306Z,98943.13
2023-03-26T23:12:43.589Z,98942.16
2023-03-26T23:15:49.067Z,98943.63
2023-03-26T23:18:51.787Z,98901.44
2023-03-26T23:21:54.094Z,98928.63
2023-03-26T23:24:56.826Z,98940.69
2023-03-26T23:27:59.321Z,98913.50
2023-03-26T23:31:05.095Z,98943.81
2023-03-26T23:34:08.504Z,98932.75
2023-03-26T23:37:11.205Z,98884.78
2023-03-26T23:40:14.639Z,98918.38
2023-03-26T23:43:17.433Z,98916.03
2023-03-26T23:46:24.036Z,98897.72
2023-03-26T23:49:27.084Z,98916.13
2023-03-26T23:52:31.057Z,98909.94
2023-03-26T23:55:36.911Z,98927.34
2023-03-26T23:58:40.372Z,98863.38
